createdAt,value
2024-04-17T05:00:45.314Z,89.83
2024-04-17T05:01:45.242Z,89.83
2024-04-17T05:02:45.174Z,89.11
2024-04-17T05:03:45.248Z,89.73
2024-04-17T05:04:45.275Z,89.87
2024-04-17T05:05:45.155Z,90.14
2024-04-17T05:06:45.157Z,90.14
2024-04-17T05:07:52.818Z,90.28
2024-04-17T05:08:45.109Z,90.90
2024-04-17T05:09:45.119Z,90.90
2024-04-17T05:10:45.123Z,91.17
2024-04-17T05:11:50.239Z,90.90
2024-04-17T05:12:45.098Z,91.42
2024-04-17T05:13:45.148Z,91.52
2024-04-17T05:14:45.037Z,91.52
2024-04-17T05:15:45.029Z,91.52
2024-04-17T05:16:45.128Z,91.52
2024-04-17T05:17:45.127Z,90.90
2024-04-17T05:18:45.083Z,90.39
2024-04-17T05:19:45.108Z,90.49
2024-04-17T05:20:44.993Z,90.80
2024-04-17T05:21:45.021Z,90.90
2024-04-17T05:22:50.045Z,91.31
2024-04-17T05:23:45.029Z,90.80
2024-04-17T05:24:44.960Z,91.00
2024-04-17T05:25:44.960Z,90.49
2024-04-17T05:26:44.908Z,90.08
2024-04-17T05:27:44.900Z,89.46
2024-04-17T05:28:44.978Z,89.77
2024-04-17T05:29:47.211Z,89.77
2024-04-17T05:30:44.874Z,89.77
2024-04-17T05:31:44.929Z,89.67
2024-04-17T05:32:44.910Z,90.08
2024-04-17T05:33:49.932Z,89.56
2024-04-17T05:34:44.908Z,89.73
2024-04-17T05:35:44.809Z,89.62
2024-04-17T05:36:44.847Z,88.90
2024-04-17T05:37:44.880Z,88.59
2024-04-17T05:38:44.854Z,89.52
2024-04-17T05:39:44.763Z,88.59
2024-04-17T05:40:44.829Z,89.05
2024-04-17T05:41:44.773Z,88.59
2024-04-17T05:42:44.823Z,89.11
2024-04-17T05:43:44.812Z,89.01
2024-04-17T05:44:49.770Z,88.90
2024-04-17T05:45:44.735Z,88.59
2024-04-17T05:46:44.746Z,88.59
2024-04-17T05:47:44.731Z,88.39
2024-04-17T05:48:44.706Z,87.98
2024-04-17T05:49:44.708Z,87.36
2024-04-17T05:50:44.698Z,87.36
2024-04-17T05:51:44.672Z,87.46
2024-04-17T05:52:44.684Z,87.67
2024-04-17T05:53:44.613Z,88.18
2024-04-17T05:54:44.603Z,87.98
2024-04-17T05:55:49.653Z,87.77
2024-04-17T05:56:44.609Z,88.18
2024-04-17T05:57:44.599Z,87.77
2024-04-17T05:58:44.570Z,87.26
2024-04-17T05:59:44.537Z,87.05
2024-04-17T06:00:44.574Z,87.05
2024-04-17T06:01:44.671Z,87.05
2024-04-17T06:02:44.568Z,86.85
2024-04-17T06:03:44.562Z,86.85
2024-04-17T06:04:44.520Z,86.64
2024-04-17T06:05:44.481Z,86.68
2024-04-17T06:06:49.486Z,86.74
2024-04-17T06:07:44.618Z,86.95
2024-04-17T06:08:44.452Z,87.15
2024-04-17T06:09:44.452Z,86.95
2024-04-17T06:10:44.498Z,87.05
2024-04-17T06:11:44.431Z,86.64
2024-04-17T06:12:44.400Z,86.54
2024-04-17T06:13:44.528Z,86.74
2024-04-17T06:14:44.425Z,86.74
2024-04-17T06:15:44.391Z,86.23
2024-04-17T06:16:44.366Z,86.08
2024-04-17T06:17:49.435Z,86.13
2024-04-17T06:18:44.396Z,85.41
2024-04-17T06:19:44.363Z,85.71
2024-04-17T06:20:44.372Z,85.61
2024-04-17T06:21:44.341Z,84.79
2024-04-17T06:22:44.373Z,85.20
2024-04-17T06:23:44.277Z,85.51
2024-04-17T06:24:44.296Z,85.36
2024-04-17T06:25:44.293Z,84.64
2024-04-17T06:26:44.279Z,85.06
2024-04-17T06:27:44.286Z,84.85
2024-04-17T06:28:49.292Z,84.23
2024-04-17T06:29:44.225Z,84.34
2024-04-17T06:30:44.207Z,84.13
2024-04-17T06:31:44.259Z,84.03
2024-04-17T06:32:44.514Z,83.41
2024-04-17T06:33:44.182Z,82.90
2024-04-17T06:34:44.245Z,82.59
2024-04-17T06:35:44.142Z,82.79
2024-04-17T06:36:44.152Z,82.69
2024-04-17T06:37:44.163Z,83.06
2024-04-17T06:38:44.143Z,82.65
2024-04-17T06:39:49.218Z,82.65
2024-04-17T06:44:28.144Z,80.11
2024-04-17T06:45:28.083Z,79.46
2024-04-17T06:46:28.142Z,79.80
2024-04-17T06:47:28.205Z,78.12
2024-04-17T06:48:28.147Z,77.58
2024-04-17T06:49:28.080Z,77.06
2024-04-17T06:50:28.057Z,76.75
2024-04-17T06:51:28.029Z,76.14
2024-04-17T06:52:28.124Z,75.01
2024-04-17T06:53:28.038Z,74.74
2024-04-17T06:54:28.000Z,76.31
2024-04-17T06:55:33.013Z,76.62
2024-04-17T06:56:27.960Z,76.62
2024-04-17T06:57:27.965Z,77.48
2024-04-17T06:58:27.978Z,77.78
2024-04-17T06:59:30.112Z,77.17
2024-04-17T07:00:27.965Z,77.58
2024-04-17T07:01:28.061Z,77.48
2024-04-17T07:02:27.954Z,77.89
2024-04-17T07:03:27.946Z,77.78
2024-04-17T07:04:27.925Z,77.58
2024-04-17T07:05:27.893Z,77.58
2024-04-17T07:06:34.351Z,77.68
2024-04-17T07:07:27.880Z,77.72
2024-04-17T07:08:27.896Z,77.58
2024-04-17T07:09:27.858Z,78.09
2024-04-17T07:10:28.009Z,77.48
2024-04-17T07:11:27.815Z,77.99
2024-04-17T07:12:27.778Z,77.78
2024-04-17T07:13:27.836Z,76.45
2024-04-17T07:14:27.792Z,77.51
2024-04-17T07:15:27.749Z,77.68
2024-04-17T07:16:27.815Z,76.76
2024-04-17T07:17:32.835Z,76.97
2024-04-17T07:18:27.757Z,76.48
2024-04-17T07:19:27.755Z,76.90
2024-04-17T07:20:27.734Z,76.59
2024-04-17T07:21:27.712Z,76.69
2024-04-17T07:22:27.779Z,76.28
2024-04-17T07:23:27.669Z,76.35
2024-04-17T07:24:27.717Z,74.84
2024-04-17T07:25:27.757Z,75.32
2024-04-17T07:26:27.643Z,76.04
2024-04-17T07:27:27.638Z,74.60
2024-04-17T07:28:32.676Z,74.67
2024-04-17T07:29:27.597Z,73.85
2024-04-17T07:30:27.676Z,75.18
2024-04-17T07:31:27.608Z,74.05
2024-04-17T07:32:27.605Z,74.46
2024-04-17T07:33:27.590Z,73.95
2024-04-17T07:34:27.575Z,74.67
2024-04-17T07:35:27.525Z,73.95
2024-04-17T07:36:27.543Z,73.23
2024-04-17T07:37:27.574Z,73.44
2024-04-17T07:38:29.624Z,73.85
2024-04-17T07:39:32.574Z,73.44
2024-04-17T07:40:27.530Z,73.02
2024-04-17T07:41:27.457Z,73.02
2024-04-17T07:42:27.443Z,72.99
2024-04-17T07:43:27.468Z,73.27
2024-04-17T07:44:27.452Z,72.24
2024-04-17T07:45:27.488Z,71.42
2024-04-17T07:46:27.434Z,71.21
2024-04-17T07:47:27.526Z,71.21
2024-04-17T07:48:27.458Z,71.76
2024-04-17T07:49:27.467Z,71.97
2024-04-17T07:50:32.450Z,72.06
2024-04-17T07:51:27.355Z,71.55
2024-04-17T07:52:27.405Z,71.55
2024-04-17T07:53:27.312Z,72.68
2024-04-17T07:54:27.328Z,72.58
2024-04-17T07:55:27.412Z,71.55
2024-04-17T07:56:27.371Z,71.04
2024-04-17T07:57:27.306Z,70.80
2024-04-17T07:58:27.305Z,70.70
2024-04-17T07:59:29.543Z,71.11
2024-04-17T08:00:27.242Z,70.80
2024-04-17T08:01:32.323Z,71.72
2024-04-17T08:02:27.278Z,69.06
2024-04-17T08:03:27.275Z,69.26
2024-04-17T08:04:27.255Z,69.37
2024-04-17T08:05:29.269Z,69.26
2024-04-17T08:06:27.169Z,69.98
2024-04-17T08:07:27.176Z,69.02
2024-04-17T08:08:27.174Z,69.61
2024-04-17T08:09:27.204Z,68.35
2024-04-17T08:10:27.186Z,68.45
2024-04-17T08:11:28.605Z,67.52
2024-04-17T08:12:32.150Z,68.55
2024-04-17T08:13:27.104Z,68.41
2024-04-17T08:14:27.104Z,67.08
2024-04-17T08:15:27.114Z,66.85
2024-04-17T08:16:27.176Z,66.20
2024-04-17T08:17:27.182Z,65.01
2024-04-17T08:18:27.176Z,65.52
2024-04-17T08:19:27.060Z,65.14
2024-04-17T08:20:27.100Z,65.11
2024-04-17T08:21:27.050Z,65.39
2024-04-17T08:22:27.050Z,65.28
2024-04-17T08:23:35.277Z,64.06
2024-04-17T08:24:26.992Z,64.98
2024-04-17T08:25:27.136Z,65.42
2024-04-17T08:26:26.979Z,65.31
2024-04-17T08:27:26.987Z,65.62
2024-04-17T08:28:26.992Z,64.16
2024-04-17T08:29:29.339Z,64.18
2024-04-17T08:30:26.897Z,64.03
2024-04-17T08:31:26.905Z,62.49
2024-04-17T08:32:27.062Z,61.51
2024-04-17T08:33:27.021Z,59.95
2024-04-17T08:34:31.913Z,59.95
2024-04-17T08:35:26.867Z,59.82
2024-04-17T08:36:27.101Z,60.03
2024-04-17T08:37:26.874Z,59.52
2024-04-17T08:38:26.908Z,59.39
2024-04-17T08:39:26.803Z,59.80
2024-04-17T08:40:26.826Z,59.82
2024-04-17T08:41:28.355Z,59.08
2024-04-17T08:42:26.824Z,59.21
2024-04-17T08:43:26.847Z,59.82
2024-04-17T08:44:26.737Z,59.75
2024-04-17T08:45:43.783Z,58.65
2024-04-17T08:46:26.905Z,59.60
2024-04-17T08:47:26.849Z,59.88
2024-04-17T08:48:26.887Z,58.96
2024-04-17T08:49:26.732Z,58.83
2024-04-17T08:50:26.663Z,57.40
2024-04-17T08:51:26.695Z,57.20
2024-04-17T08:52:26.695Z,57.40
2024-04-17T08:53:26.679Z,57.40
2024-04-17T08:54:26.648Z,57.37
2024-04-17T08:55:26.648Z,57.37
2024-04-17T08:56:31.626Z,57.57
2024-04-17T08:57:26.623Z,57.37
2024-04-17T08:58:26.609Z,56.86
2024-04-17T08:59:26.623Z,57.29
2024-04-17T09:00:26.561Z,58.01
2024-04-17T09:01:26.572Z,57.91
2024-04-17T09:02:26.576Z,57.09
2024-04-17T09:03:26.625Z,56.79
2024-04-17T09:04:26.558Z,56.71
2024-04-17T09:05:26.544Z,57.02
2024-04-17T09:06:26.480Z,57.22
2024-04-17T09:07:31.527Z,57.43
2024-04-17T09:08:26.744Z,58.04
2024-04-17T09:09:26.502Z,57.43
2024-04-17T09:10:26.511Z,56.71
2024-04-17T09:11:26.498Z,57.22
2024-04-17T09:12:26.419Z,57.73
2024-04-17T09:13:26.552Z,57.35
2024-04-17T09:14:26.760Z,57.15
2024-04-17T09:15:26.411Z,56.23
2024-04-17T09:16:26.416Z,56.30
2024-04-17T09:17:29.430Z,56.30
2024-04-17T09:18:31.401Z,55.46
2024-04-17T09:19:26.377Z,54.36
2024-04-17T09:20:26.340Z,53.44
2024-04-17T09:21:26.354Z,54.33
2024-04-17T09:22:26.395Z,53.92
2024-04-17T09:23:26.350Z,53.52
2024-04-17T09:24:26.284Z,54.44
2024-04-17T09:25:26.428Z,54.13
2024-04-17T09:26:26.351Z,54.31
2024-04-17T09:27:26.269Z,53.27
2024-04-17T09:28:26.335Z,52.96
2024-04-17T09:29:31.313Z,50.99
2024-04-17T09:30:26.214Z,49.95
2024-04-17T09:31:26.289Z,49.93
2024-04-17T09:32:26.229Z,51.15
2024-04-17T09:33:26.239Z,51.05
2024-04-17T09:34:26.262Z,50.95
2024-04-17T09:35:26.180Z,51.25
2024-04-17T09:36:26.204Z,51.28
2024-04-17T09:37:26.160Z,51.61
2024-04-17T09:38:26.153Z,51.71
2024-04-17T09:39:26.134Z,52.01
2024-04-17T09:40:31.170Z,53.24
2024-04-17T09:41:26.113Z,54.26
2024-04-17T09:42:26.073Z,54.18
2024-04-17T09:43:28.941Z,53.19
2024-04-17T09:44:26.071Z,54.59
2024-04-17T09:45:26.085Z,55.00
2024-04-17T09:46:26.150Z,55.20
2024-04-17T09:47:26.062Z,54.92
2024-04-17T09:48:26.013Z,54.00
2024-04-17T09:49:26.090Z,56.02
2024-04-17T09:50:25.988Z,53.98
2024-04-17T09:51:31.000Z,52.14
2024-04-17T09:52:26.005Z,53.98
2024-04-17T09:53:31.910Z,51.84
2024-04-17T09:54:25.982Z,51.53
2024-04-17T09:55:26.056Z,52.45
2024-04-17T09:56:25.934Z,52.01
2024-04-17T09:57:25.926Z,50.92
2024-04-17T09:58:25.987Z,51.91
2024-04-17T09:59:25.941Z,51.71
2024-04-17T10:00:25.885Z,52.40
2024-04-17T10:01:25.936Z,51.48
2024-04-17T10:02:30.984Z,49.73
2024-04-17T10:03:25.926Z,49.75
2024-04-17T10:04:25.878Z,49.73
2024-04-17T10:05:25.856Z,49.80
2024-04-17T10:06:25.801Z,48.10
2024-04-17T10:07:25.879Z,48.50
2024-04-17T10:08:25.906Z,46.48
2024-04-17T10:09:25.827Z,47.17
2024-04-17T10:10:25.808Z,46.48
2024-04-17T10:11:25.843Z,46.08
2024-04-17T10:12:25.732Z,46.26
2024-04-17T10:13:30.803Z,47.49
2024-04-17T10:14:25.724Z,47.49
2024-04-17T10:15:25.748Z,47.28
2024-04-17T10:16:25.823Z,47.38
2024-04-17T10:17:34.682Z,47.38
2024-04-17T10:18:25.991Z,47.81
2024-04-17T10:19:25.694Z,47.81
2024-04-17T10:20:25.679Z,48.42
2024-04-17T10:21:25.650Z,47.83
2024-04-17T10:22:25.746Z,48.65
2024-04-17T10:23:25.659Z,48.65
2024-04-17T10:24:30.732Z,47.94
2024-04-17T10:25:32.021Z,47.91
2024-04-17T10:26:25.664Z,47.91
2024-04-17T10:27:25.582Z,47.61
2024-04-17T10:28:25.612Z,48.50
2024-04-17T10:29:25.576Z,47.99
2024-04-17T10:30:25.582Z,48.14
2024-04-17T10:31:25.542Z,49.05
2024-04-17T10:32:25.593Z,49.24
2024-04-17T10:33:25.647Z,49.57
2024-04-17T10:34:25.588Z,50.48
2024-04-17T10:35:30.595Z,50.08
2024-04-17T10:36:25.550Z,50.77
2024-04-17T10:37:25.598Z,50.36
2024-04-17T10:38:31.455Z,49.32
2024-04-17T10:39:26.443Z,48.71
2024-04-17T10:40:25.565Z,48.81
2024-04-17T10:41:25.436Z,49.65
2024-04-17T10:42:25.443Z,49.75
2024-04-17T10:43:25.468Z,49.85
2024-04-17T10:44:25.389Z,49.24
2024-04-17T10:45:25.403Z,49.24
2024-04-17T10:46:30.515Z,47.13
2024-04-17T10:47:25.370Z,45.81
2024-04-17T10:48:25.476Z,46.20
2024-04-17T10:49:25.418Z,46.42
2024-04-17T10:50:25.474Z,45.28
2024-04-17T10:51:26.417Z,45.56
2024-04-17T10:52:25.349Z,44.34
2024-04-17T10:53:25.447Z,44.79
2024-04-17T10:54:25.297Z,44.45
2024-04-17T10:55:25.285Z,43.84
2024-04-17T10:56:25.303Z,43.61
2024-04-17T10:57:30.309Z,43.81
2024-04-17T10:58:25.314Z,44.73
2024-04-17T10:59:25.284Z,44.54
2024-04-17T11:00:25.259Z,44.46
2024-04-17T11:01:25.235Z,44.36
2024-04-17T11:02:25.173Z,44.67
2024-04-17T11:03:25.408Z,44.65
2024-04-17T11:04:25.351Z,44.54
2024-04-17T11:05:25.204Z,44.04
2024-04-17T11:06:25.180Z,44.04
2024-04-17T11:07:25.300Z,44.16
2024-04-17T11:08:30.178Z,45.20
2024-04-17T11:09:25.111Z,46.24
2024-04-17T11:10:25.143Z,45.83
2024-04-17T11:11:25.349Z,45.91
2024-04-17T11:12:25.088Z,44.89
2024-04-17T11:13:25.146Z,45.53
2024-04-17T11:14:25.100Z,46.64
2024-04-17T11:15:25.100Z,46.64
2024-04-17T11:16:25.212Z,46.34
2024-04-17T11:17:25.220Z,46.44
2024-04-17T11:18:25.206Z,46.34
2024-04-17T11:19:30.040Z,46.30
2024-04-17T11:20:24.983Z,46.81
2024-04-17T11:21:25.018Z,45.67
2024-04-17T11:22:25.028Z,45.76
2024-04-17T11:23:24.954Z,44.93
2024-04-17T11:24:24.970Z,46.07
2024-04-17T11:25:24.975Z,44.73
2024-04-17T11:26:24.916Z,44.53
2024-04-17T11:27:24.901Z,45.15
2024-04-17T11:28:25.030Z,45.97
2024-04-17T11:29:33.408Z,45.14
2024-04-17T11:30:29.921Z,45.26
2024-04-17T11:31:24.838Z,46.17
2024-04-17T11:32:24.927Z,45.46
2024-04-17T11:33:24.875Z,45.59
2024-04-17T11:34:24.804Z,45.59
2024-04-17T11:35:24.832Z,44.38
2024-04-17T11:36:24.824Z,44.10
2024-04-17T11:37:24.826Z,43.90
2024-04-17T11:38:24.783Z,44.40
2024-04-17T11:39:24.759Z,44.92
2024-04-17T11:40:25.556Z,44.20
2024-04-17T11:41:29.803Z,44.20
2024-04-17T11:42:24.747Z,45.20
2024-04-17T11:43:24.700Z,43.87
2024-04-17T11:44:24.753Z,45.42
2024-04-17T11:45:24.760Z,45.94
2024-04-17T11:46:24.690Z,47.17
2024-04-17T11:47:24.693Z,46.97
2024-04-17T11:48:24.968Z,47.89
2024-04-17T11:49:25.019Z,48.10
2024-04-17T11:50:24.751Z,48.07
2024-04-17T11:51:24.610Z,48.07
2024-04-17T11:52:29.639Z,48.46
2024-04-17T11:53:24.598Z,46.93
2024-04-17T11:54:24.653Z,46.62
2024-04-17T11:55:24.626Z,47.01
2024-04-17T11:56:24.543Z,46.17
2024-04-17T11:57:24.536Z,46.37
2024-04-17T11:58:24.544Z,45.97
2024-04-17T11:59:24.522Z,45.46
2024-04-17T12:00:24.616Z,44.45
2024-04-17T12:01:24.522Z,44.93
2024-04-17T12:02:24.472Z,44.65
2024-04-17T12:03:29.754Z,44.36
2024-04-17T12:04:24.491Z,44.38
2024-04-17T12:05:24.564Z,45.01
2024-04-17T12:06:24.488Z,43.90
2024-04-17T12:07:24.421Z,44.81
2024-04-17T12:08:24.454Z,44.71
2024-04-17T12:09:24.403Z,44.51
2024-04-17T12:10:24.431Z,44.61
2024-04-17T12:11:24.506Z,45.53
2024-04-17T12:12:24.401Z,45.71
2024-04-17T12:13:24.388Z,45.10
2024-04-17T12:14:29.390Z,44.87
2024-04-17T12:15:24.351Z,44.95
2024-04-17T12:16:24.408Z,44.87
2024-04-17T12:17:24.399Z,44.77
2024-04-17T12:18:24.318Z,45.61
2024-04-17T12:19:24.317Z,45.50
2024-04-17T12:20:24.314Z,45.68
2024-04-17T12:21:24.252Z,46.70
2024-04-17T12:22:24.279Z,46.32
2024-04-17T12:23:24.256Z,45.61
2024-04-17T12:24:24.299Z,44.79
2024-04-17T12:25:29.301Z,44.69
2024-04-17T12:26:24.239Z,44.97
2024-04-17T12:27:24.186Z,45.28
2024-04-17T12:28:24.175Z,45.79
2024-04-17T12:29:24.201Z,44.26
2024-04-17T12:30:24.201Z,43.71
2024-04-17T12:31:24.164Z,44.32
2024-04-17T12:32:24.152Z,44.02
2024-04-17T12:33:24.231Z,42.11
2024-04-17T12:34:24.111Z,41.54
2024-04-17T12:35:24.098Z,41.09
2024-04-17T12:36:29.110Z,39.20
2024-04-17T12:37:24.091Z,38.76
2024-04-17T12:38:24.100Z,36.13
2024-04-17T12:39:24.102Z,37.18
2024-04-17T12:40:24.050Z,37.12
2024-04-17T12:41:24.049Z,39.07
2024-04-17T12:42:24.063Z,39.50
2024-04-17T12:43:24.004Z,39.73
2024-04-17T12:44:24.028Z,40.79
2024-04-17T12:45:23.979Z,41.52
2024-04-17T12:46:23.973Z,41.66
2024-04-17T12:47:29.060Z,42.08
2024-04-17T12:48:24.010Z,42.51
2024-04-17T12:49:23.966Z,43.55
2024-04-17T12:50:23.965Z,44.08
2024-04-17T12:51:23.923Z,44.59
2024-04-17T12:52:23.901Z,45.00
2024-04-17T12:53:23.933Z,44.77
2024-04-17T12:54:23.890Z,44.46
2024-04-17T12:55:23.896Z,45.40
2024-04-17T12:56:23.877Z,45.50
2024-04-17T12:57:23.864Z,45.89
2024-04-17T12:58:28.901Z,45.76
2024-04-17T12:59:23.863Z,44.16
2024-04-17T13:00:23.823Z,44.26
2024-04-17T13:01:23.801Z,44.16
2024-04-17T13:02:28.287Z,44.75
2024-04-17T13:03:23.899Z,43.53
2024-04-17T13:04:23.827Z,43.75
2024-04-17T13:05:23.750Z,43.65
2024-04-17T13:06:26.176Z,44.26
2024-04-17T13:07:23.729Z,43.04
2024-04-17T13:08:23.746Z,41.82
2024-04-17T13:09:28.788Z,42.74
2024-04-17T13:10:23.715Z,42.41
2024-04-17T13:11:23.708Z,42.61
2024-04-17T13:12:23.682Z,42.21
2024-04-17T13:13:23.686Z,42.41
2024-04-17T13:14:23.656Z,42.13
2024-04-17T13:15:23.672Z,42.02
2024-04-17T13:16:23.626Z,42.21
2024-04-17T13:17:23.732Z,42.22
2024-04-17T13:18:23.766Z,42.63
2024-04-17T13:19:23.597Z,42.21
2024-04-17T13:20:28.607Z,42.21
2024-04-17T13:21:23.574Z,43.02
2024-04-17T13:22:23.617Z,42.21
2024-04-17T13:23:23.651Z,41.80
2024-04-17T13:24:23.709Z,41.80
2024-04-17T13:25:23.524Z,41.92
2024-04-17T13:26:24.812Z,42.33
2024-04-17T13:27:23.602Z,42.10
2024-04-17T13:28:23.520Z,41.90
2024-04-17T13:29:23.512Z,42.10
2024-04-17T13:30:23.474Z,41.47
2024-04-17T13:31:28.537Z,41.80
2024-04-17T13:32:23.562Z,41.60
2024-04-17T13:33:23.502Z,41.74
2024-04-17T13:34:24.555Z,42.86
2024-04-17T13:35:23.418Z,42.65
2024-04-17T13:36:23.407Z,41.74
2024-04-17T13:37:23.410Z,42.88
2024-04-17T13:38:23.402Z,42.55
2024-04-17T13:39:23.386Z,42.35
2024-04-17T13:40:26.018Z,42.14
2024-04-17T13:41:23.357Z,42.14
2024-04-17T13:42:28.386Z,42.25
2024-04-17T13:43:23.357Z,42.14
2024-04-17T13:44:23.316Z,42.63
2024-04-17T13:45:23.310Z,42.13
2024-04-17T13:46:24.356Z,42.63
2024-04-17T13:47:23.392Z,42.53
2024-04-17T13:48:23.410Z,42.65
2024-04-17T13:49:23.287Z,42.86
2024-04-17T13:50:23.258Z,42.86
2024-04-17T13:51:23.259Z,43.47
2024-04-17T13:52:24.702Z,43.18
2024-04-17T13:53:28.297Z,43.69
2024-04-17T13:54:23.197Z,45.32
2024-04-17T13:55:23.187Z,47.28
2024-04-17T13:56:23.182Z,48.40
2024-04-17T13:57:23.183Z,51.05
2024-04-17T13:58:23.155Z,50.77
2024-04-17T13:59:23.168Z,51.17
2024-04-17T14:00:23.138Z,52.29
2024-04-17T14:01:23.148Z,51.79
2024-04-17T14:02:23.910Z,51.81
2024-04-17T14:03:23.151Z,51.99
2024-04-17T14:04:28.142Z,52.62
2024-04-17T14:05:23.072Z,51.89
2024-04-17T14:06:23.104Z,52.60
2024-04-17T14:07:23.054Z,52.12
2024-04-17T14:08:24.584Z,52.42
2024-04-17T14:09:23.049Z,52.62
2024-04-17T14:10:23.046Z,51.71
2024-04-17T14:11:23.054Z,52.09
2024-04-17T14:12:23.166Z,51.81
2024-04-17T14:13:22.985Z,50.99
2024-04-17T14:14:22.976Z,51.51
2024-04-17T14:15:28.008Z,50.89
2024-04-17T14:16:22.957Z,50.69
2024-04-17T14:17:22.998Z,51.81
2024-04-17T14:18:23.050Z,50.69
2024-04-17T14:19:22.918Z,51.30
2024-04-17T14:20:22.929Z,51.40
2024-04-17T14:21:23.039Z,51.10
2024-04-17T14:22:22.907Z,50.08
2024-04-17T14:23:22.930Z,51.10
2024-04-17T14:24:22.912Z,51.30
2024-04-17T14:25:22.850Z,50.99
2024-04-17T14:26:27.956Z,50.89
2024-04-17T14:27:23.053Z,50.69
2024-04-17T14:28:22.817Z,50.08
2024-04-17T14:29:22.802Z,50.38
2024-04-17T14:30:22.840Z,49.98
2024-04-17T14:31:22.813Z,50.92
2024-04-17T14:32:22.836Z,51.02
2024-04-17T14:33:23.049Z,51.32
2024-04-17T14:34:22.776Z,51.43
2024-04-17T14:35:23.555Z,51.20
2024-04-17T14:36:22.751Z,51.12
2024-04-17T14:37:27.757Z,51.32
2024-04-17T14:38:22.748Z,50.71
2024-04-17T14:39:22.751Z,51.15
2024-04-17T14:40:22.680Z,52.14
2024-04-17T14:41:22.924Z,53.90
2024-04-17T14:42:22.711Z,54.72
2024-04-17T14:43:22.695Z,55.87
2024-04-17T14:44:22.675Z,56.89
2024-04-17T14:45:22.713Z,57.35
2024-04-17T14:46:22.607Z,57.45
2024-04-17T14:47:22.645Z,57.38
2024-04-17T14:48:27.742Z,58.09
2024-04-17T14:49:22.656Z,57.58
2024-04-17T14:50:22.574Z,58.09
2024-04-17T14:51:22.603Z,57.68
2024-04-17T14:52:22.561Z,58.20
2024-04-17T14:53:22.551Z,57.30
2024-04-17T14:54:22.555Z,57.71
2024-04-17T14:55:22.510Z,58.33
2024-04-17T14:56:22.494Z,58.22
2024-04-17T14:57:22.565Z,57.81
2024-04-17T14:58:22.472Z,58.35
2024-04-17T14:59:27.485Z,58.22
2024-04-17T15:00:22.497Z,57.30
2024-04-17T15:01:22.551Z,57.02
2024-04-17T15:02:22.433Z,57.53
2024-04-17T15:03:22.477Z,57.94
2024-04-17T15:04:22.529Z,58.04
2024-04-17T15:05:22.399Z,58.86
2024-04-17T15:06:22.713Z,58.86
2024-04-17T15:07:22.385Z,59.30
2024-04-17T15:08:22.376Z,60.02
2024-04-17T15:09:22.432Z,59.50
2024-04-17T15:10:27.384Z,58.79
2024-04-17T15:11:22.358Z,59.41
2024-04-17T15:12:22.357Z,58.76
2024-04-17T15:13:22.309Z,59.20
2024-04-17T15:14:22.299Z,58.48
2024-04-17T15:15:22.317Z,58.15
2024-04-17T15:16:22.311Z,57.74
2024-04-17T15:17:22.277Z,57.94
2024-04-17T15:18:22.443Z,58.25
2024-04-17T15:19:22.358Z,57.74
2024-04-17T15:20:22.250Z,58.35
2024-04-17T15:21:27.317Z,57.61
2024-04-17T15:22:22.195Z,57.61
2024-04-17T15:23:22.196Z,57.61
2024-04-17T15:24:22.214Z,57.51
2024-04-17T15:25:22.181Z,57.40
2024-04-17T15:26:22.161Z,58.02
2024-04-17T15:27:22.172Z,57.61
2024-04-17T15:28:22.131Z,57.10
2024-04-17T15:29:22.118Z,57.43
2024-04-17T15:30:22.150Z,56.99
2024-04-17T15:31:22.115Z,56.71
2024-04-17T15:32:27.254Z,58.12
2024-04-17T15:33:22.090Z,58.22
2024-04-17T15:34:22.085Z,58.84
2024-04-17T15:35:22.082Z,59.30
2024-04-17T15:36:22.044Z,59.50
2024-04-17T15:37:22.071Z,60.15
2024-04-17T15:38:22.054Z,60.42
2024-04-17T15:39:22.004Z,61.15
2024-04-17T15:40:22.011Z,61.48
2024-04-17T15:41:21.983Z,61.71
2024-04-17T15:42:22.000Z,62.12
2024-04-17T15:43:27.031Z,62.63
2024-04-17T15:44:21.943Z,62.84
2024-04-17T15:45:21.976Z,62.54
2024-04-17T15:46:21.923Z,62.54
2024-04-17T15:47:21.967Z,62.43
2024-04-17T15:48:21.914Z,62.63
2024-04-17T15:49:22.119Z,62.51
2024-04-17T15:50:21.877Z,62.10
2024-04-17T15:51:21.925Z,61.18
2024-04-17T15:52:21.871Z,61.18
2024-04-17T15:53:21.848Z,61.07
2024-04-17T15:54:27.083Z,60.25
2024-04-17T15:55:21.912Z,61.27
2024-04-17T15:56:21.974Z,61.58
2024-04-17T15:57:21.807Z,61.76
2024-04-17T15:58:21.970Z,61.45
2024-04-17T15:59:21.791Z,61.48
2024-04-17T16:00:21.827Z,61.99
2024-04-17T16:01:21.973Z,62.81
2024-04-17T16:02:21.793Z,63.12
2024-04-17T16:03:21.914Z,63.87
2024-04-17T16:04:21.958Z,64.07
2024-04-17T16:05:26.739Z,64.28
2024-04-17T16:06:21.792Z,64.28
2024-04-17T16:07:21.689Z,64.48
2024-04-17T16:08:21.691Z,64.17
2024-04-17T16:09:21.726Z,64.72
2024-04-17T16:10:21.663Z,65.03
2024-04-17T16:11:22.056Z,65.10
2024-04-17T16:12:21.661Z,64.51
2024-04-17T16:13:21.627Z,64.72
2024-04-17T16:14:21.626Z,65.03
2024-04-17T16:15:21.691Z,65.51
2024-04-17T16:16:26.611Z,65.10
2024-04-17T16:17:21.604Z,64.48
2024-04-17T16:18:21.650Z,64.59
2024-04-17T16:19:21.566Z,64.92
2024-04-17T16:20:21.579Z,65.00
2024-04-17T16:21:21.546Z,64.89
2024-04-17T16:22:21.531Z,64.69
2024-04-17T16:23:21.514Z,65.41
2024-04-17T16:24:21.559Z,65.51
2024-04-17T16:25:21.509Z,64.89
2024-04-17T16:26:21.493Z,64.48
2024-04-17T16:27:26.556Z,64.45
2024-04-17T16:28:21.480Z,64.65
2024-04-17T16:29:21.463Z,63.76
2024-04-17T16:30:21.466Z,64.38
2024-04-17T16:31:21.421Z,64.69
2024-04-17T16:32:21.508Z,64.89
2024-04-17T16:33:21.505Z,64.69
2024-04-17T16:34:21.392Z,65.30
2024-04-17T16:35:21.395Z,65.00
2024-04-17T16:36:21.525Z,65.41
2024-04-17T16:37:21.361Z,65.10
2024-04-17T16:38:26.418Z,65.30
2024-04-17T16:39:21.452Z,65.41
2024-04-17T16:40:21.324Z,65.41
2024-04-17T16:41:21.354Z,65.64
2024-04-17T16:42:21.332Z,64.72
2024-04-17T16:43:21.313Z,64.92
2024-04-17T16:44:21.292Z,65.33
2024-04-17T16:45:21.310Z,65.44
2024-04-17T16:46:21.248Z,65.23
2024-04-17T16:47:21.238Z,65.12
2024-04-17T16:48:21.299Z,65.30
2024-04-17T16:49:26.311Z,65.71
2024-04-17T16:50:21.210Z,65.41
2024-04-17T16:51:21.235Z,65.51
2024-04-17T16:52:21.190Z,65.00
2024-04-17T16:53:21.177Z,65.10
2024-04-17T16:54:21.170Z,65.00
2024-04-17T16:55:21.141Z,65.20
2024-04-17T16:56:21.184Z,64.56
2024-04-17T16:57:21.175Z,63.94
2024-04-17T16:58:21.111Z,64.48
2024-04-17T16:59:21.105Z,64.48
2024-04-17T17:00:26.209Z,63.84
2024-04-17T17:01:21.152Z,64.25
2024-04-17T17:02:21.090Z,64.32
2024-04-17T17:03:21.148Z,63.73
2024-04-17T17:04:21.253Z,63.73
2024-04-17T17:05:21.034Z,63.73
2024-04-17T17:06:21.062Z,64.25
2024-04-17T17:07:21.009Z,63.73
2024-04-17T17:08:21.050Z,63.53
2024-04-17T17:09:21.052Z,62.81
2024-04-17T17:10:20.983Z,62.30
2024-04-17T17:11:26.061Z,63.12
2024-04-17T17:12:21.019Z,62.71
2024-04-17T17:13:20.967Z,63.09
2024-04-17T17:14:20.945Z,62.17
2024-04-17T17:15:20.934Z,61.69
2024-04-17T17:16:20.934Z,61.79
2024-04-17T17:17:20.909Z,61.96
2024-04-17T17:18:21.043Z,61.45
2024-04-17T17:19:20.980Z,61.69
2024-04-17T17:20:20.864Z,62.19
2024-04-17T17:21:20.980Z,62.19
2024-04-17T17:22:25.862Z,63.02
2024-04-17T17:23:20.834Z,62.81
2024-04-17T17:24:20.856Z,62.30
2024-04-17T17:25:20.882Z,62.40
2024-04-17T17:26:20.811Z,62.40
2024-04-17T17:27:20.866Z,62.51
2024-04-17T17:28:20.790Z,62.23
2024-04-17T17:29:20.759Z,62.61
2024-04-17T17:30:20.793Z,63.32
2024-04-17T17:31:20.747Z,63.84
2024-04-17T17:32:20.842Z,63.66
2024-04-17T17:33:25.868Z,63.35
2024-04-17T17:34:20.711Z,63.22
2024-04-17T17:35:20.767Z,63.97
2024-04-17T17:36:20.802Z,63.56
2024-04-17T17:37:20.699Z,63.73
2024-04-17T17:38:20.665Z,64.07
2024-04-17T17:39:26.923Z,63.97
2024-04-17T17:40:20.637Z,63.87
2024-04-17T17:41:20.636Z,63.35
2024-04-17T17:42:20.636Z,63.56
2024-04-17T17:43:20.625Z,63.94
2024-04-17T17:44:25.660Z,63.76
2024-04-17T17:45:20.604Z,63.76
2024-04-17T17:46:20.594Z,63.46
2024-04-17T17:47:20.566Z,63.46
2024-04-17T17:48:20.830Z,63.87
2024-04-17T17:49:20.614Z,63.25
2024-04-17T17:50:20.552Z,64.28
2024-04-17T17:51:20.625Z,64.17
2024-04-17T17:52:20.505Z,63.25
2024-04-17T17:53:20.506Z,63.76
2024-04-17T17:54:20.505Z,64.31
2024-04-17T17:55:25.511Z,64.41
2024-04-17T17:56:20.507Z,65.23